sensor_id;sensor_type;location;lat;lon;timestamp;P1;durP1;ratioP1;P2;durP2;ratioP2
64619;SDS011;51029;51.058;13.826;2023-02-15T00:00:08;50.60;;;27.77;;
64619;SDS011;51029;51.058;13.826;2023-02-15T00:02:37;49.77;;;28.40;;
64619;SDS011;51029;51.058;13.826;2023-02-15T00:05:03;48.83;;;29.00;;
64619;SDS011;51029;51.058;13.826;2023-02-15T00:07:29;54.47;;;29.83;;
64619;SDS011;51029;51.058;13.826;2023-02-15T00:09:54;54.23;;;30.10;;
64619;SDS011;51029;51.058;13.826;2023-02-15T00:12:20;49.97;;;28.17;;
64619;SDS011;51029;51.058;13.826;2023-02-15T00:14:47;47.33;;;28.10;;
64619;SDS011;51029;51.058;13.826;2023-02-15T00:17:12;49.00;;;26.87;;
64619;SDS011;51029;51.058;13.826;2023-02-15T00:19:38;49.13;;;27.83;;
64619;SDS011;51029;51.058;13.826;2023-02-15T00:22:05;48.67;;;26.83;;
64619;SDS011;51029;51.058;13.826;2023-02-15T00:24:30;47.03;;;26.87;;
64619;SDS011;51029;51.058;13.826;2023-02-15T00:26:56;46.40;;;26.70;;
64619;SDS011;51029;51.058;13.826;2023-02-15T00:29:21;49.23;;;27.03;;
64619;SDS011;51029;51.058;13.826;2023-02-15T00:31:47;49.87;;;27.07;;
64619;SDS011;51029;51.058;13.826;2023-02-15T00:34:20;48.87;;;27.50;;
64619;SDS011;51029;51.058;13.826;2023-02-15T00:36:48;52.20;;;27.10;;
64619;SDS011;51029;51.058;13.826;2023-02-15T00:39:14;51.60;;;26.67;;
64619;SDS011;51029;51.058;13.826;2023-02-15T00:41:40;51.73;;;27.67;;
64619;SDS011;51029;51.058;13.826;2023-02-15T00:44:06;49.33;;;27.77;;
64619;SDS011;51029;51.058;13.826;2023-02-15T00:46:32;54.23;;;28.80;;
64619;SDS011;51029;51.058;13.826;2023-02-15T00:48:58;49.90;;;27.50;;
64619;SDS011;51029;51.058;13.826;2023-02-15T00:51:23;51.30;;;28.60;;
64619;SDS011;51029;51.058;13.826;2023-02-15T00:53:49;55.20;;;30.37;;
64619;SDS011;51029;51.058;13.826;2023-02-15T00:56:15;54.40;;;28.80;;
64619;SDS011;51029;51.058;13.826;2023-02-15T00:58:40;55.17;;;28.67;;
64619;SDS011;51029;51.058;13.826;2023-02-15T01:01:09;49.87;;;27.23;;
64619;SDS011;51029;51.058;13.826;2023-02-15T01:03:37;53.50;;;27.77;;
64619;SDS011;51029;51.058;13.826;2023-02-15T01:06:03;52.87;;;29.27;;
64619;SDS011;51029;51.058;13.826;2023-02-15T01:08:29;51.70;;;28.23;;
64619;SDS011;51029;51.058;13.826;2023-02-15T01:10:55;49.73;;;27.33;;
64619;SDS011;51029;51.058;13.826;2023-02-15T01:13:21;52.20;;;29.13;;
64619;SDS011;51029;51.058;13.826;2023-02-15T01:15:53;53.97;;;27.17;;
64619;SDS011;51029;51.058;13.826;2023-02-15T01:18:19;50.83;;;27.80;;
64619;SDS011;51029;51.058;13.826;2023-02-15T01:20:46;51.13;;;28.10;;
64619;SDS011;51029;51.058;13.826;2023-02-15T01:23:12;51.63;;;28.60;;
64619;SDS011;51029;51.058;13.826;2023-02-15T01:25:38;51.97;;;28.00;;
64619;SDS011;51029;51.058;13.826;2023-02-15T01:28:03;50.03;;;27.03;;
64619;SDS011;51029;51.058;13.826;2023-02-15T01:30:29;52.17;;;27.87;;
64619;SDS011;51029;51.058;13.826;2023-02-15T01:32:55;53.73;;;28.67;;
64619;SDS011;51029;51.058;13.826;2023-02-15T01:35:21;49.43;;;26.63;;
64619;SDS011;51029;51.058;13.826;2023-02-15T01:37:46;52.27;;;27.23;;
64619;SDS011;51029;51.058;13.826;2023-02-15T01:40:13;51.17;;;27.37;;
64619;SDS011;51029;51.058;13.826;2023-02-15T01:42:40;55.13;;;28.37;;
64619;SDS011;51029;51.058;13.826;2023-02-15T01:45:26;52.47;;;28.77;;
64619;SDS011;51029;51.058;13.826;2023-02-15T01:50:46;51.93;;;28.33;;
64619;SDS011;51029;51.058;13.826;2023-02-15T01:53:17;48.57;;;26.90;;
64619;SDS011;51029;51.058;13.826;2023-02-15T01:56:04;51.63;;;27.87;;
64619;SDS011;51029;51.058;13.826;2023-02-15T01:58:37;52.40;;;28.00;;
64619;SDS011;51029;51.058;13.826;2023-02-15T02:01:03;49.40;;;26.77;;
64619;SDS011;51029;51.058;13.826;2023-02-15T02:06:22;53.30;;;27.47;;
64619;SDS011;51029;51.058;13.826;2023-02-15T02:08:49;51.00;;;27.70;;
64619;SDS011;51029;51.058;13.826;2023-02-15T02:11:16;51.03;;;27.47;;
64619;SDS011;51029;51.058;13.826;2023-02-15T02:13:42;46.57;;;26.03;;
64619;SDS011;51029;51.058;13.826;2023-02-15T02:16:23;50.40;;;26.77;;
64619;SDS011;51029;51.058;13.826;2023-02-15T02:27:29;56.27;;;27.50;;
64619;SDS011;51029;51.058;13.826;2023-02-15T02:30:20;51.50;;;25.93;;
64619;SDS011;51029;51.058;13.826;2023-02-15T02:33:04;49.50;;;26.33;;
64619;SDS011;51029;51.058;13.826;2023-02-15T02:38:48;50.60;;;26.27;;
64619;SDS011;51029;51.058;13.826;2023-02-15T02:49:44;49.50;;;25.50;;
64619;SDS011;51029;51.058;13.826;2023-02-15T03:00:46;46.23;;;24.60;;
64619;SDS011;51029;51.058;13.826;2023-02-15T03:03:32;48.43;;;25.20;;
64619;SDS011;51029;51.058;13.826;2023-02-15T03:06:04;47.07;;;24.47;;
64619;SDS011;51029;51.058;13.826;2023-02-15T03:08:39;46.33;;;24.97;;
64619;SDS011;51029;51.058;13.826;2023-02-15T03:11:10;51.20;;;26.13;;
64619;SDS011;51029;51.058;13.826;2023-02-15T03:13:36;48.97;;;25.03;;
64619;SDS011;51029;51.058;13.826;2023-02-15T03:16:03;44.23;;;23.60;;
64619;SDS011;51029;51.058;13.826;2023-02-15T03:18:51;48.03;;;24.43;;
64619;SDS011;51029;51.058;13.826;2023-02-15T03:21:45;45.00;;;24.47;;
64619;SDS011;51029;51.058;13.826;2023-02-15T03:24:15;44.23;;;24.13;;
64619;SDS011;51029;51.058;13.826;2023-02-15T03:26:46;44.23;;;23.60;;
64619;SDS011;51029;51.058;13.826;2023-02-15T03:29:15;47.27;;;24.50;;
64619;SDS011;51029;51.058;13.826;2023-02-15T03:31:45;44.30;;;23.57;;
64619;SDS011;51029;51.058;13.826;2023-02-15T03:34:14;41.70;;;22.87;;
64619;SDS011;51029;51.058;13.826;2023-02-15T03:36:44;43.30;;;22.43;;
64619;SDS011;51029;51.058;13.826;2023-02-15T03:42:39;43.50;;;22.00;;
64619;SDS011;51029;51.058;13.826;2023-02-15T03:44:51;43.73;;;22.20;;
64619;SDS011;51029;51.058;13.826;2023-02-15T03:47:42;42.10;;;21.97;;
64619;SDS011;51029;51.058;13.826;2023-02-15T03:50:12;44.03;;;22.30;;
64619;SDS011;51029;51.058;13.826;2023-02-15T03:53:01;46.93;;;23.27;;
64619;SDS011;51029;51.058;13.826;2023-02-15T03:55:28;44.00;;;23.43;;
64619;SDS011;51029;51.058;13.826;2023-02-15T03:57:54;43.60;;;23.87;;
64619;SDS011;51029;51.058;13.826;2023-02-15T04:00:40;44.13;;;22.67;;
64619;SDS011;51029;51.058;13.826;2023-02-15T04:03:36;41.77;;;23.30;;
64619;SDS011;51029;51.058;13.826;2023-02-15T04:06:09;43.00;;;21.70;;
64619;SDS011;51029;51.058;13.826;2023-02-15T04:08:35;45.50;;;22.80;;
64619;SDS011;51029;51.058;13.826;2023-02-15T04:11:19;43.30;;;23.03;;
64619;SDS011;51029;51.058;13.826;2023-02-15T04:13:44;41.37;;;21.20;;
64619;SDS011;51029;51.058;13.826;2023-02-15T04:16:10;40.73;;;22.00;;
64619;SDS011;51029;51.058;13.826;2023-02-15T04:18:40;39.17;;;21.87;;
64619;SDS011;51029;51.058;13.826;2023-02-15T04:21:26;43.30;;;21.17;;
64619;SDS011;51029;51.058;13.826;2023-02-15T04:24:13;42.90;;;22.60;;
64619;SDS011;51029;51.058;13.826;2023-02-15T04:26:58;39.33;;;20.97;;
64619;SDS011;51029;51.058;13.826;2023-02-15T04:29:24;39.40;;;20.47;;
64619;SDS011;51029;51.058;13.826;2023-02-15T04:31:51;36.90;;;21.20;;
64619;SDS011;51029;51.058;13.826;2023-02-15T04:34:18;39.07;;;20.83;;
64619;SDS011;51029;51.058;13.826;2023-02-15T04:36:43;40.67;;;21.20;;
64619;SDS011;51029;51.058;13.826;2023-02-15T04:39:11;38.80;;;20.83;;
64619;SDS011;51029;51.058;13.826;2023-02-15T04:41:38;39.23;;;20.57;;
64619;SDS011;51029;51.058;13.826;2023-02-15T04:44:03;32.40;;;19.40;;
64619;SDS011;51029;51.058;13.826;2023-02-15T04:46:29;33.63;;;19.10;;
64619;SDS011;51029;51.058;13.826;2023-02-15T04:48:56;34.33;;;19.53;;
64619;SDS011;51029;51.058;13.826;2023-02-15T04:51:21;38.73;;;20.90;;
64619;SDS011;51029;51.058;13.826;2023-02-15T04:53:47;37.83;;;20.67;;
64619;SDS011;51029;51.058;13.826;2023-02-15T04:56:13;34.30;;;19.90;;
64619;SDS011;51029;51.058;13.826;2023-02-15T04:58:38;32.87;;;18.50;;
64619;SDS011;51029;51.058;13.826;2023-02-15T05:01:06;34.00;;;19.53;;
64619;SDS011;51029;51.058;13.826;2023-02-15T05:03:32;33.67;;;18.93;;
64619;SDS011;51029;51.058;13.826;2023-02-15T05:05:58;37.67;;;20.33;;
64619;SDS011;51029;51.058;13.826;2023-02-15T05:08:23;35.17;;;18.97;;
64619;SDS011;51029;51.058;13.826;2023-02-15T05:10:49;33.23;;;19.40;;
64619;SDS011;51029;51.058;13.826;2023-02-15T05:13:15;37.67;;;20.27;;
64619;SDS011;51029;51.058;13.826;2023-02-15T05:15:40;38.00;;;20.47;;
64619;SDS011;51029;51.058;13.826;2023-02-15T05:18:06;33.03;;;19.33;;
64619;SDS011;51029;51.058;13.826;2023-02-15T05:20:32;36.90;;;18.93;;
64619;SDS011;51029;51.058;13.826;2023-02-15T05:22:58;36.57;;;19.70;;
64619;SDS011;51029;51.058;13.826;2023-02-15T05:25:23;38.37;;;19.30;;
64619;SDS011;51029;51.058;13.826;2023-02-15T05:28:08;34.60;;;20.27;;
64619;SDS011;51029;51.058;13.826;2023-02-15T05:30:44;35.67;;;19.30;;
64619;SDS011;51029;51.058;13.826;2023-02-15T05:33:10;36.47;;;19.53;;
64619;SDS011;51029;51.058;13.826;2023-02-15T05:35:35;35.27;;;19.27;;
64619;SDS011;51029;51.058;13.826;2023-02-15T05:38:01;36.50;;;20.60;;
64619;SDS011;51029;51.058;13.826;2023-02-15T05:40:26;35.17;;;19.47;;
64619;SDS011;51029;51.058;13.826;2023-02-15T05:42:52;36.47;;;19.93;;
64619;SDS011;51029;51.058;13.826;2023-02-15T05:45:17;35.47;;;19.70;;
64619;SDS011;51029;51.058;13.826;2023-02-15T05:47:43;35.87;;;18.87;;
64619;SDS011;51029;51.058;13.826;2023-02-15T05:50:09;35.13;;;18.73;;
64619;SDS011;51029;51.058;13.826;2023-02-15T05:52:36;40.03;;;21.37;;
64619;SDS011;51029;51.058;13.826;2023-02-15T05:55:01;46.93;;;27.67;;
64619;SDS011;51029;51.058;13.826;2023-02-15T05:57:28;37.27;;;19.63;;
64619;SDS011;51029;51.058;13.826;2023-02-15T05:59:53;33.07;;;19.60;;
64619;SDS011;51029;51.058;13.826;2023-02-15T06:02:19;35.90;;;19.37;;
64619;SDS011;51029;51.058;13.826;2023-02-15T06:04:44;34.63;;;19.30;;
64619;SDS011;51029;51.058;13.826;2023-02-15T06:07:10;34.07;;;18.60;;
64619;SDS011;51029;51.058;13.826;2023-02-15T06:09:35;37.50;;;19.40;;
64619;SDS011;51029;51.058;13.826;2023-02-15T06:12:01;31.20;;;17.97;;
64619;SDS011;51029;51.058;13.826;2023-02-15T06:14:27;32.83;;;18.73;;
64619;SDS011;51029;51.058;13.826;2023-02-15T06:16:52;32.43;;;17.60;;
64619;SDS011;51029;51.058;13.826;2023-02-15T06:19:18;33.30;;;17.97;;
64619;SDS011;51029;51.058;13.826;2023-02-15T06:21:43;33.40;;;18.03;;
64619;SDS011;51029;51.058;13.826;2023-02-15T06:24:09;31.77;;;18.13;;
64619;SDS011;51029;51.058;13.826;2023-02-15T06:26:35;32.37;;;17.97;;
64619;SDS011;51029;51.058;13.826;2023-02-15T06:29:00;34.33;;;19.17;;
64619;SDS011;51029;51.058;13.826;2023-02-15T06:31:26;34.87;;;18.30;;
64619;SDS011;51029;51.058;13.826;2023-02-15T06:33:51;36.23;;;19.90;;
64619;SDS011;51029;51.058;13.826;2023-02-15T06:36:17;34.27;;;18.23;;
64619;SDS011;51029;51.058;13.826;2023-02-15T06:38:42;39.33;;;19.97;;
64619;SDS011;51029;51.058;13.826;2023-02-15T06:41:08;36.83;;;19.73;;
64619;SDS011;51029;51.058;13.826;2023-02-15T06:43:33;33.00;;;18.43;;
64619;SDS011;51029;51.058;13.826;2023-02-15T06:45:59;32.17;;;18.30;;
64619;SDS011;51029;51.058;13.826;2023-02-15T06:48:25;37.47;;;18.73;;
64619;SDS011;51029;51.058;13.826;2023-02-15T06:50:51;31.87;;;19.00;;
64619;SDS011;51029;51.058;13.826;2023-02-15T06:53:16;32.20;;;17.13;;
64619;SDS011;51029;51.058;13.826;2023-02-15T06:55:42;30.77;;;17.13;;
64619;SDS011;51029;51.058;13.826;2023-02-15T06:58:07;30.60;;;17.10;;
64619;SDS011;51029;51.058;13.826;2023-02-15T07:00:33;28.87;;;17.63;;
64619;SDS011;51029;51.058;13.826;2023-02-15T07:02:58;28.53;;;17.03;;
64619;SDS011;51029;51.058;13.826;2023-02-15T07:05:25;29.17;;;16.90;;
64619;SDS011;51029;51.058;13.826;2023-02-15T07:07:55;29.67;;;16.00;;
64619;SDS011;51029;51.058;13.826;2023-02-15T07:10:22;29.17;;;16.93;;
64619;SDS011;51029;51.058;13.826;2023-02-15T07:12:48;29.80;;;17.23;;
64619;SDS011;51029;51.058;13.826;2023-02-15T07:15:17;26.00;;;16.10;;
64619;SDS011;51029;51.058;13.826;2023-02-15T07:17:45;28.93;;;16.40;;
64619;SDS011;51029;51.058;13.826;2023-02-15T07:20:19;28.77;;;17.43;;
64619;SDS011;51029;51.058;13.826;2023-02-15T07:22:45;28.07;;;16.23;;
64619;SDS011;51029;51.058;13.826;2023-02-15T07:25:11;31.27;;;17.20;;
64619;SDS011;51029;51.058;13.826;2023-02-15T07:27:37;26.70;;;16.30;;
64619;SDS011;51029;51.058;13.826;2023-02-15T07:30:04;27.40;;;16.47;;
64619;SDS011;51029;51.058;13.826;2023-02-15T07:32:32;27.17;;;16.70;;
64619;SDS011;51029;51.058;13.826;2023-02-15T07:34:58;25.60;;;16.03;;
64619;SDS011;51029;51.058;13.826;2023-02-15T07:37:24;28.30;;;16.37;;
64619;SDS011;51029;51.058;13.826;2023-02-15T07:39:50;26.93;;;15.30;;
64619;SDS011;51029;51.058;13.826;2023-02-15T07:42:15;22.77;;;14.37;;
64619;SDS011;51029;51.058;13.826;2023-02-15T07:44:42;23.63;;;14.50;;
64619;SDS011;51029;51.058;13.826;2023-02-15T07:47:08;24.53;;;15.20;;
64619;SDS011;51029;51.058;13.826;2023-02-15T07:49:33;21.30;;;13.87;;
64619;SDS011;51029;51.058;13.826;2023-02-15T07:52:00;24.43;;;14.57;;
64619;SDS011;51029;51.058;13.826;2023-02-15T07:54:26;23.57;;;14.70;;
64619;SDS011;51029;51.058;13.826;2023-02-15T07:56:52;22.77;;;14.37;;
64619;SDS011;51029;51.058;13.826;2023-02-15T07:59:17;22.30;;;14.10;;
64619;SDS011;51029;51.058;13.826;2023-02-15T08:01:43;20.80;;;14.37;;
64619;SDS011;51029;51.058;13.826;2023-02-15T08:04:08;23.67;;;14.10;;
64619;SDS011;51029;51.058;13.826;2023-02-15T08:06:35;22.93;;;14.53;;
64619;SDS011;51029;51.058;13.826;2023-02-15T08:09:03;23.70;;;14.37;;
64619;SDS011;51029;51.058;13.826;2023-02-15T08:11:31;24.43;;;14.67;;
64619;SDS011;51029;51.058;13.826;2023-02-15T08:16:44;22.93;;;13.43;;
64619;SDS011;51029;51.058;13.826;2023-02-15T08:19:17;20.73;;;13.40;;
64619;SDS011;51029;51.058;13.826;2023-02-15T08:21:49;22.23;;;13.47;;
64619;SDS011;51029;51.058;13.826;2023-02-15T08:24:17;23.40;;;14.13;;
64619;SDS011;51029;51.058;13.826;2023-02-15T08:26:44;23.03;;;13.60;;
64619;SDS011;51029;51.058;13.826;2023-02-15T08:29:11;23.80;;;14.47;;
64619;SDS011;51029;51.058;13.826;2023-02-15T08:31:38;19.83;;;13.00;;
64619;SDS011;51029;51.058;13.826;2023-02-15T08:34:05;20.70;;;13.33;;
64619;SDS011;51029;51.058;13.826;2023-02-15T08:36:31;20.30;;;13.40;;
64619;SDS011;51029;51.058;13.826;2023-02-15T08:38:58;19.00;;;12.70;;
64619;SDS011;51029;51.058;13.826;2023-02-15T08:41:26;19.97;;;12.77;;
64619;SDS011;51029;51.058;13.826;2023-02-15T08:43:55;19.93;;;12.13;;
64619;SDS011;51029;51.058;13.826;2023-02-15T08:46:22;15.87;;;11.03;;
64619;SDS011;51029;51.058;13.826;2023-02-15T08:48:49;18.67;;;12.37;;
64619;SDS011;51029;51.058;13.826;2023-02-15T08:51:17;15.93;;;11.20;;
64619;SDS011;51029;51.058;13.826;2023-02-15T08:53:45;17.53;;;11.40;;
64619;SDS011;51029;51.058;13.826;2023-02-15T08:56:14;16.93;;;11.20;;
64619;SDS011;51029;51.058;13.826;2023-02-15T08:58:41;15.23;;;10.83;;
64619;SDS011;51029;51.058;13.826;2023-02-15T09:01:10;15.50;;;11.23;;
64619;SDS011;51029;51.058;13.826;2023-02-15T09:03:37;14.67;;;10.27;;
64619;SDS011;51029;51.058;13.826;2023-02-15T09:06:03;15.73;;;11.37;;
64619;SDS011;51029;51.058;13.826;2023-02-15T09:08:29;16.23;;;11.47;;
64619;SDS011;51029;51.058;13.826;2023-02-15T09:11:03;14.83;;;10.87;;
64619;SDS011;51029;51.058;13.826;2023-02-15T09:13:30;16.43;;;11.47;;
64619;SDS011;51029;51.058;13.826;2023-02-15T09:16:00;15.97;;;11.17;;
64619;SDS011;51029;51.058;13.826;2023-02-15T09:18:33;17.67;;;11.20;;
64619;SDS011;51029;51.058;13.826;2023-02-15T09:21:14;15.60;;;11.47;;
64619;SDS011;51029;51.058;13.826;2023-02-15T09:23:42;16.20;;;11.73;;
64619;SDS011;51029;51.058;13.826;2023-02-15T09:26:10;15.93;;;11.90;;
64619;SDS011;51029;51.058;13.826;2023-02-15T09:28:41;15.70;;;12.20;;
64619;SDS011;51029;51.058;13.826;2023-02-15T09:31:07;15.00;;;11.53;;
64619;SDS011;51029;51.058;13.826;2023-02-15T09:33:42;16.87;;;12.50;;
64619;SDS011;51029;51.058;13.826;2023-02-15T09:38:46;18.20;;;13.67;;
64619;SDS011;51029;51.058;13.826;2023-02-15T09:52:35;19.93;;;13.27;;
64619;SDS011;51029;51.058;13.826;2023-02-15T10:03:35;20.30;;;16.10;;
64619;SDS011;51029;51.058;13.826;2023-02-15T10:09:11;22.03;;;16.97;;
64619;SDS011;51029;51.058;13.826;2023-02-15T10:14:32;18.33;;;15.27;;
64619;SDS011;51029;51.058;13.826;2023-02-15T10:20:11;19.43;;;15.77;;
64619;SDS011;51029;51.058;13.826;2023-02-15T10:23:08;19.00;;;15.33;;
64619;SDS011;51029;51.058;13.826;2023-02-15T10:25:51;19.53;;;15.87;;
64619;SDS011;51029;51.058;13.826;2023-02-15T10:28:36;21.27;;;16.47;;
64619;SDS011;51029;51.058;13.826;2023-02-15T10:31:22;21.50;;;16.63;;
64619;SDS011;51029;51.058;13.826;2023-02-15T10:36:44;17.87;;;15.10;;
64619;SDS011;51029;51.058;13.826;2023-02-15T10:50:48;16.40;;;14.60;;
64619;SDS011;51029;51.058;13.826;2023-02-15T11:01:41;17.17;;;14.63;;
64619;SDS011;51029;51.058;13.826;2023-02-15T11:06:43;20.17;;;14.93;;
64619;SDS011;51029;51.058;13.826;2023-02-15T11:09:16;17.17;;;14.87;;
64619;SDS011;51029;51.058;13.826;2023-02-15T11:11:44;16.93;;;14.40;;
64619;SDS011;51029;51.058;13.826;2023-02-15T11:17:04;16.73;;;13.37;;
64619;SDS011;51029;51.058;13.826;2023-02-15T11:19:35;15.50;;;12.90;;
64619;SDS011;51029;51.058;13.826;2023-02-15T11:22:06;14.20;;;12.53;;
64619;SDS011;51029;51.058;13.826;2023-02-15T11:24:37;18.43;;;13.90;;
64619;SDS011;51029;51.058;13.826;2023-02-15T11:32:23;16.63;;;14.03;;
64619;SDS011;51029;51.058;13.826;2023-02-15T11:35:18;18.73;;;14.10;;
64619;SDS011;51029;51.058;13.826;2023-02-15T11:37:48;17.60;;;13.80;;
64619;SDS011;51029;51.058;13.826;2023-02-15T11:40:47;15.93;;;13.40;;
64619;SDS011;51029;51.058;13.826;2023-02-15T11:43:14;16.33;;;13.70;;
64619;SDS011;51029;51.058;13.826;2023-02-15T11:45:41;16.77;;;13.47;;
64619;SDS011;51029;51.058;13.826;2023-02-15T11:48:10;15.60;;;14.00;;
64619;SDS011;51029;51.058;13.826;2023-02-15T11:50:37;15.30;;;13.70;;
64619;SDS011;51029;51.058;13.826;2023-02-15T11:53:04;18.10;;;13.90;;
64619;SDS011;51029;51.058;13.826;2023-02-15T11:55:38;17.57;;;13.73;;
64619;SDS011;51029;51.058;13.826;2023-02-15T12:04:04;18.27;;;12.57;;
64619;SDS011;51029;51.058;13.826;2023-02-15T12:06:41;15.53;;;13.90;;
64619;SDS011;51029;51.058;13.826;2023-02-15T12:09:17;16.03;;;13.60;;
64619;SDS011;51029;51.058;13.826;2023-02-15T12:11:47;15.43;;;13.40;;
64619;SDS011;51029;51.058;13.826;2023-02-15T12:14:12;17.27;;;13.03;;
64619;SDS011;51029;51.058;13.826;2023-02-15T12:16:51;19.60;;;15.63;;
64619;SDS011;51029;51.058;13.826;2023-02-15T12:21:56;19.07;;;13.20;;
64619;SDS011;51029;51.058;13.826;2023-02-15T12:24:25;14.47;;;12.93;;
64619;SDS011;51029;51.058;13.826;2023-02-15T12:29:47;16.03;;;12.90;;
64619;SDS011;51029;51.058;13.826;2023-02-15T12:32:31;15.77;;;12.73;;
64619;SDS011;51029;51.058;13.826;2023-02-15T12:35:01;17.73;;;13.07;;
64619;SDS011;51029;51.058;13.826;2023-02-15T12:37:39;15.87;;;12.83;;
64619;SDS011;51029;51.058;13.826;2023-02-15T12:40:23;14.73;;;12.57;;
64619;SDS011;51029;51.058;13.826;2023-02-15T12:42:51;16.27;;;12.87;;
64619;SDS011;51029;51.058;13.826;2023-02-15T12:45:27;15.67;;;12.10;;
64619;SDS011;51029;51.058;13.826;2023-02-15T12:50:41;17.63;;;13.43;;
64619;SDS011;51029;51.058;13.826;2023-02-15T12:53:53;16.03;;;14.33;;
64619;SDS011;51029;51.058;13.826;2023-02-15T12:56:02;14.80;;;13.05;;
64619;SDS011;51029;51.058;13.826;2023-02-15T12:58:33;16.70;;;13.18;;
64619;SDS011;51029;51.058;13.826;2023-02-15T13:03:59;15.20;;;13.60;;
64619;SDS011;51029;51.058;13.826;2023-02-15T13:06:25;18.48;;;14.15;;
64619;SDS011;51029;51.058;13.826;2023-02-15T13:09:06;15.77;;;14.05;;
64619;SDS011;51029;51.058;13.826;2023-02-15T13:11:44;15.97;;;14.37;;
64619;SDS011;51029;51.058;13.826;2023-02-15T13:14:54;16.27;;;14.17;;
64619;SDS011;51029;51.058;13.826;2023-02-15T13:17:00;15.83;;;13.83;;
64619;SDS011;51029;51.058;13.826;2023-02-15T13:22:10;17.95;;;14.77;;
64619;SDS011;51029;51.058;13.826;2023-02-15T13:24:41;16.45;;;13.50;;
64619;SDS011;51029;51.058;13.826;2023-02-15T13:27:37;14.70;;;13.20;;
64619;SDS011;51029;51.058;13.826;2023-02-15T13:30:38;15.07;;;13.57;;
64619;SDS011;51029;51.058;13.826;2023-02-15T13:33:03;16.70;;;14.45;;
64619;SDS011;51029;51.058;13.826;2023-02-15T13:47:21;17.17;;;15.48;;
64619;SDS011;51029;51.058;13.826;2023-02-15T13:55:33;16.47;;;14.73;;
64619;SDS011;51029;51.058;13.826;2023-02-15T14:01:06;16.67;;;14.80;;
64619;SDS011;51029;51.058;13.826;2023-02-15T14:03:43;20.83;;;17.30;;
64619;SDS011;51029;51.058;13.826;2023-02-15T14:09:48;21.20;;;17.83;;
64619;SDS011;51029;51.058;13.826;2023-02-15T14:13:02;20.13;;;17.53;;
64619;SDS011;51029;51.058;13.826;2023-02-15T14:15:43;18.00;;;15.20;;
64619;SDS011;51029;51.058;13.826;2023-02-15T14:18:15;18.03;;;15.67;;
64619;SDS011;51029;51.058;13.826;2023-02-15T14:29:15;21.97;;;18.43;;
64619;SDS011;51029;51.058;13.826;2023-02-15T14:31:47;22.70;;;18.60;;
64619;SDS011;51029;51.058;13.826;2023-02-15T14:34:18;22.00;;;18.00;;
64619;SDS011;51029;51.058;13.826;2023-02-15T14:37:16;25.90;;;19.57;;
64619;SDS011;51029;51.058;13.826;2023-02-15T14:39:51;23.83;;;19.63;;
64619;SDS011;51029;51.058;13.826;2023-02-15T14:43:00;22.47;;;18.87;;
64619;SDS011;51029;51.058;13.826;2023-02-15T14:45:48;23.37;;;20.13;;
64619;SDS011;51029;51.058;13.826;2023-02-15T14:51:53;27.20;;;21.27;;
64619;SDS011;51029;51.058;13.826;2023-02-15T14:57:20;27.20;;;22.47;;
64619;SDS011;51029;51.058;13.826;2023-02-15T15:02:44;28.83;;;20.87;;
64619;SDS011;51029;51.058;13.826;2023-02-15T15:08:01;31.17;;;22.60;;
64619;SDS011;51029;51.058;13.826;2023-02-15T15:19:56;29.00;;;21.20;;
64619;SDS011;51029;51.058;13.826;2023-02-15T15:22:16;34.37;;;21.93;;
64619;SDS011;51029;51.058;13.826;2023-02-15T15:35:35;32.90;;;21.83;;
64619;SDS011;51029;51.058;13.826;2023-02-15T15:46:40;31.43;;;20.93;;
64619;SDS011;51029;51.058;13.826;2023-02-15T15:49:20;32.17;;;21.23;;
64619;SDS011;51029;51.058;13.826;2023-02-15T15:51:48;31.50;;;20.83;;
64619;SDS011;51029;51.058;13.826;2023-02-15T15:54:16;30.33;;;19.43;;
64619;SDS011;51029;51.058;13.826;2023-02-15T15:56:51;30.27;;;20.50;;
64619;SDS011;51029;51.058;13.826;2023-02-15T15:59:21;30.20;;;19.80;;
64619;SDS011;51029;51.058;13.826;2023-02-15T16:01:49;31.60;;;19.67;;
64619;SDS011;51029;51.058;13.826;2023-02-15T16:04:28;31.83;;;20.40;;
64619;SDS011;51029;51.058;13.826;2023-02-15T16:06:56;27.83;;;20.00;;
64619;SDS011;51029;51.058;13.826;2023-02-15T16:09:23;47.80;;;28.90;;
64619;SDS011;51029;51.058;13.826;2023-02-15T16:11:55;45.30;;;28.43;;
64619;SDS011;51029;51.058;13.826;2023-02-15T16:17:01;31.27;;;18.97;;
64619;SDS011;51029;51.058;13.826;2023-02-15T16:19:32;33.03;;;19.77;;
64619;SDS011;51029;51.058;13.826;2023-02-15T16:22:00;31.73;;;18.43;;
64619;SDS011;51029;51.058;13.826;2023-02-15T16:24:32;31.17;;;19.13;;
64619;SDS011;51029;51.058;13.826;2023-02-15T16:29:58;30.13;;;18.70;;
64619;SDS011;51029;51.058;13.826;2023-02-15T16:32:35;33.03;;;18.90;;
64619;SDS011;51029;51.058;13.826;2023-02-15T16:35:02;28.90;;;19.27;;
64619;SDS011;51029;51.058;13.826;2023-02-15T16:37:32;32.60;;;19.17;;
64619;SDS011;51029;51.058;13.826;2023-02-15T16:39:59;28.60;;;19.23;;
64619;SDS011;51029;51.058;13.826;2023-02-15T16:42:25;29.33;;;19.57;;
64619;SDS011;51029;51.058;13.826;2023-02-15T16:44:51;31.53;;;20.57;;
64619;SDS011;51029;51.058;13.826;2023-02-15T16:47:25;34.50;;;20.63;;
64619;SDS011;51029;51.058;13.826;2023-02-15T16:49:56;34.93;;;20.33;;
64619;SDS011;51029;51.058;13.826;2023-02-15T16:52:25;30.20;;;20.37;;
64619;SDS011;51029;51.058;13.826;2023-02-15T16:55:02;35.47;;;21.27;;
64619;SDS011;51029;51.058;13.826;2023-02-15T16:57:34;34.17;;;21.47;;
64619;SDS011;51029;51.058;13.826;2023-02-15T17:00:06;33.57;;;20.47;;
64619;SDS011;51029;51.058;13.826;2023-02-15T17:02:33;33.23;;;21.57;;
64619;SDS011;51029;51.058;13.826;2023-02-15T17:07:39;36.13;;;22.37;;
64619;SDS011;51029;51.058;13.826;2023-02-15T17:10:24;38.20;;;23.57;;
64619;SDS011;51029;51.058;13.826;2023-02-15T17:12:53;34.53;;;21.90;;
64619;SDS011;51029;51.058;13.826;2023-02-15T17:15:41;40.03;;;21.70;;
64619;SDS011;51029;51.058;13.826;2023-02-15T17:20:47;38.53;;;23.03;;
64619;SDS011;51029;51.058;13.826;2023-02-15T17:25:56;41.00;;;22.60;;
64619;SDS011;51029;51.058;13.826;2023-02-15T17:28:26;36.00;;;22.77;;
64619;SDS011;51029;51.058;13.826;2023-02-15T17:30:54;39.50;;;22.93;;
64619;SDS011;51029;51.058;13.826;2023-02-15T17:36:03;35.27;;;22.03;;
64619;SDS011;51029;51.058;13.826;2023-02-15T17:38:34;35.60;;;21.70;;
64619;SDS011;51029;51.058;13.826;2023-02-15T17:41:02;35.87;;;21.23;;
64619;SDS011;51029;51.058;13.826;2023-02-15T17:43:27;34.77;;;21.00;;
64619;SDS011;51029;51.058;13.826;2023-02-15T17:45:53;40.40;;;23.07;;
64619;SDS011;51029;51.058;13.826;2023-02-15T17:48:26;35.17;;;21.93;;
64619;SDS011;51029;51.058;13.826;2023-02-15T17:50:57;37.33;;;21.57;;
64619;SDS011;51029;51.058;13.826;2023-02-15T17:53:24;34.90;;;20.93;;
64619;SDS011;51029;51.058;13.826;2023-02-15T17:55:50;36.47;;;22.37;;
64619;SDS011;51029;51.058;13.826;2023-02-15T17:58:16;37.60;;;22.10;;
64619;SDS011;51029;51.058;13.826;2023-02-15T18:00:53;36.23;;;22.67;;